Kezdőlap
METAR-TAF:

METAR-TAF

Repülőterek :

Nain, Újfundland és Labrador, Kanada

földrajzi szélesség: 56-33N, földrajzi hosszúság: 061-41W, magasság: 6 m

Jelenlegi meteorológiai megfigyelések

A jelentés 34 perccel ezelõtt készült, 13:00 UTC
Délnyugati szél 5 kt, déli és nyugati között változik
Hőmérséklet -23°C
Páratartalom 58%
Légköri nyomás 1020 hPa
Látótávolság: 24.1 km
Kevés felhő 11000 lábon
Kevés felhő 21000 lábon

METAR: CYDP 181300Z 23005KT 170V280 15SM FEW110 FEW210 M23/M29 A3013 RMK AC1CI1 AC TR CI TR SLP204

Idő: 09:34 (13:34 UTC)

Előrejelzés

A jelentés 2 órával és 56 perccel ezelõtt készült, 10:38 UTC
Az előrejelzés 18-én 11 óra UTC és 18-én 23 óra UTC között érvényes
Déli szél 10 kt széllökések: 20 kt
Látótávolság: 10 km
Derült ég

TAF: CYDP 181038Z 1811/1823 19010G20KT P6SM SKC RMK NXT FCST BY 181400Z

Meteorológiai megfigyelések és előrejelzések több, mint 4000 repülőtéren (METAR és TAF jelentéseket).

A térképen piros és sárga pontok jelzik az elérhető meteorológiai állomásokat.

Mozgassa az egeret a pont fölött, hogy megjelenjen az állomás neve.

Azután kattintson az időjárási megfigyelések és előrejelzések megtekintéséhez.

A térkép megváltoztatása: kattintson a fekete keresztel jelölt zöld gombra ráközelítéshez, a vonallal jelölt zöld gombra távolításhoz, vagy a zöld nyilakra a szomszédos térképek eléréséhez.


METAR-TAF: